Time;durP1;ratioP1;P1;durP2;ratioP2;P2;SDS_P1;SDS_P2;PMS_P1;PMS_P2;Temp;Humidity;BMP_temperature;BMP_pressure;BME280_temperature;BME280_humidity;BME280_pressure;Samples;Min_cycle;Max_cycle;Signal;HPM_P1;HPM_P2
2023/01/22 00:01:01;;;;;;;108.30;40.90;;;;;;;-0.46;100.00;101233.00;5021983;28;20210;-75
2023/01/22 00:03:27;;;;;;;110.00;43.83;;;;;;;-0.44;100.00;101228.88;5024143;28;20602;-75
2023/01/22 00:05:52;;;;;;;103.80;39.23;;;;;;;-0.40;100.00;101230.78;5023757;28;20175;-74
2023/01/22 00:08:18;;;;;;;101.73;39.23;;;;;;;-0.35;100.00;101225.91;5025256;28;20187;-74
2023/01/22 00:10:51;;;;;;;97.50;37.53;;;;;;;-0.30;100.00;101224.47;5013737;28;20208;-74
2023/01/22 00:13:17;;;;;;;90.57;36.73;;;;;;;-0.26;100.00;101228.06;5020398;28;20197;-75
2023/01/22 00:15:43;;;;;;;96.43;39.37;;;;;;;-0.22;100.00;101222.31;5015144;28;20218;-75
2023/01/22 00:18:08;;;;;;;106.27;37.60;;;;;;;-0.20;100.00;101221.59;5013684;28;20189;-75
2023/01/22 00:20:33;;;;;;;94.07;37.23;;;;;;;-0.16;100.00;101230.25;5013783;28;20853;-75
2023/01/22 00:22:59;;;;;;;101.80;39.07;;;;;;;-0.15;100.00;101221.81;5017959;28;20194;-76
2023/01/22 00:25:24;;;;;;;99.83;37.90;;;;;;;-0.14;100.00;101223.56;5019785;28;20641;-75
2023/01/22 00:27:49;;;;;;;102.37;39.77;;;;;;;-0.10;100.00;101220.41;5029058;28;20186;-75
2023/01/22 00:30:15;;;;;;;96.93;38.43;;;;;;;-0.07;100.00;101217.13;5026971;28;20187;-75
2023/01/22 00:32:40;;;;;;;102.00;41.10;;;;;;;-0.05;100.00;101211.28;5019393;28;20327;-75
2023/01/22 00:35:06;;;;;;;100.07;41.20;;;;;;;-0.03;100.00;101211.41;5021430;28;20984;-75
2023/01/22 00:37:31;;;;;;;104.30;43.73;;;;;;;-0.04;100.00;101212.19;5018204;28;20184;-75
2023/01/22 00:39:56;;;;;;;97.40;40.63;;;;;;;-0.06;100.00;101208.69;5022410;28;20193;-75
2023/01/22 00:42:22;;;;;;;104.70;39.17;;;;;;;-0.07;100.00;101204.41;5025880;28;20246;-75
2023/01/22 00:44:47;;;;;;;92.17;37.70;;;;;;;-0.07;100.00;101209.50;5018426;28;20244;-76
2023/01/22 00:47:12;;;;;;;96.73;36.53;;;;;;;-0.08;100.00;101210.28;5021964;28;20565;-75
2023/01/22 00:49:38;;;;;;;103.97;37.57;;;;;;;-0.07;100.00;101204.41;5012889;28;20547;-75
2023/01/22 00:52:03;;;;;;;82.33;36.53;;;;;;;-0.06;100.00;101209.53;5018877;28;20204;-75
2023/01/22 00:54:29;;;;;;;95.67;36.17;;;;;;;-0.05;100.00;101205.34;5023518;28;20315;-75
2023/01/22 00:56:54;;;;;;;89.47;37.03;;;;;;;-0.02;100.00;101197.88;5018150;28;20211;-75
2023/01/22 00:59:19;;;;;;;95.40;38.07;;;;;;;-0.02;100.00;101190.25;5018853;28;20188;-74
2023/01/22 01:01:45;;;;;;;97.20;39.03;;;;;;;-0.01;100.00;101192.84;5050152;28;20211;-76
2023/01/22 01:04:10;;;;;;;119.57;47.57;;;;;;;-0.02;100.00;101198.72;5051926;28;20189;-75
2023/01/22 01:06:35;;;;;;;119.97;47.93;;;;;;;-0.08;100.00;101189.94;5019610;28;20182;-76
2023/01/22 01:09:00;;;;;;;118.33;48.50;;;;;;;-0.10;100.00;101187.31;5021946;28;20191;-75
2023/01/22 01:11:26;;;;;;;107.73;45.57;;;;;;;-0.14;100.00;101180.31;5015491;28;20734;-74
2023/01/22 01:13:52;;;;;;;109.17;43.43;;;;;;;-0.17;100.00;101186.16;5021724;28;20221;-76
2023/01/22 01:16:20;;;;;;;125.13;48.47;;;;;;;-0.19;100.00;101189.38;5017447;28;20218;-75
2023/01/22 01:18:47;;;;;;;110.13;45.47;;;;;;;-0.25;100.00;101189.09;5019673;28;20276;-75
2023/01/22 01:21:12;;;;;;;109.57;44.37;;;;;;;-0.26;100.00;101185.66;5013399;28;20226;-74
2023/01/22 01:23:38;;;;;;;96.63;42.07;;;;;;;-0.25;100.00;101195.06;5025330;28;20211;-75
2023/01/22 01:26:06;;;;;;;127.57;51.83;;;;;;;-0.24;100.00;101194.25;5026771;28;20228;-75
2023/01/22 01:28:33;;;;;;;117.87;48.10;;;;;;;-0.26;100.00;101195.00;5027661;28;20182;-76
2023/01/22 01:31:07;;;;;;;109.37;46.53;;;;;;;-0.26;100.00;101190.75;5024547;28;20279;-75
2023/01/22 01:33:33;;;;;;;98.23;43.90;;;;;;;-0.19;100.00;101197.03;5019625;28;20186;-75
2023/01/22 01:36:04;;;;;;;100.73;41.30;;;;;;;-0.16;100.00;101187.00;5014764;28;20306;-75
2023/01/22 01:38:31;;;;;;;95.63;41.47;;;;;;;-0.13;100.00;101187.16;5016529;28;20180;-75
2023/01/22 01:40:56;;;;;;;90.30;38.83;;;;;;;-0.11;100.00;101200.84;5015541;28;20217;-75
2023/01/22 01:43:21;;;;;;;114.17;42.77;;;;;;;-0.10;100.00;101194.94;5020125;28;20186;-75
2023/01/22 01:45:47;;;;;;;90.70;37.40;;;;;;;-0.08;100.00;101192.47;5022572;28;20276;-75
2023/01/22 01:48:27;;;;;;;105.80;39.97;;;;;;;-0.05;100.00;101192.63;5024709;28;20542;-74
2023/01/22 01:51:22;;;;;;;104.33;40.40;;;;;;;-0.06;100.00;101185.78;5015504;28;20237;-74
2023/01/22 01:53:49;;;;;;;102.67;39.13;;;;;;;-0.04;100.00;101187.59;5008515;28;20201;-75
2023/01/22 01:56:19;;;;;;;106.10;44.17;;;;;;;-0.04;100.00;101187.59;5018354;28;20204;-74
2023/01/22 01:58:45;;;;;;;110.37;45.27;;;;;;;-0.06;100.00;101184.09;5019532;28;20195;-74
2023/01/22 02:01:14;;;;;;;106.40;42.67;;;;;;;-0.03;100.00;101185.94;5018557;28;20282;-75
2023/01/22 02:03:40;;;;;;;106.80;41.87;;;;;;;-0.02;100.00;101177.50;5022567;28;20217;-75
2023/01/22 02:06:09;;;;;;;100.37;41.60;;;;;;;-0.02;100.00;101180.06;5014175;28;20955;-75
2023/01/22 02:08:34;;;;;;;111.53;45.10;;;;;;;-0.02;100.00;101180.91;5017281;28;20196;-74
2023/01/22 02:11:00;;;;;;;109.13;43.87;;;;;;;-0.02;100.00;101180.06;5010676;28;20840;-75
2023/01/22 02:13:30;;;;;;;105.23;40.73;;;;;;;-0.01;100.00;101177.56;5028984;28;20180;-75
2023/01/22 02:15:55;;;;;;;147.03;55.50;;;;;;;-0.09;100.00;101176.34;5015065;28;20277;-75
2023/01/22 02:18:20;;;;;;;119.43;48.83;;;;;;;-0.09;100.00;101181.44;5020770;28;20646;-74
2023/01/22 02:20:58;;;;;;;113.40;49.00;;;;;;;-0.07;100.00;101178.94;5028111;28;20287;-74
2023/01/22 02:23:24;;;;;;;129.13;52.30;;;;;;;-0.08;100.00;101175.53;5011696;28;20225;-75
2023/01/22 02:25:49;;;;;;;125.33;54.83;;;;;;;-0.15;100.00;101178.56;5025025;28;22237;-74
2023/01/22 02:28:16;;;;;;;139.27;53.37;;;;;;;-0.17;100.00;101177.63;5018746;28;20207;-75
2023/01/22 02:30:42;;;;;;;137.63;54.90;;;;;;;-0.26;100.00;101172.09;5030829;28;20236;-74
2023/01/22 02:33:08;;;;;;;143.30;57.97;;;;;;;-0.28;100.00;101166.06;5025279;28;20548;-75
2023/01/22 02:35:33;;;;;;;133.07;54.57;;;;;;;-0.31;100.00;101165.09;5017833;28;20216;-75
2023/01/22 02:37:59;;;;;;;141.73;58.70;;;;;;;-0.36;100.00;101158.91;5016430;28;20187;-74
2023/01/22 02:40:24;;;;;;;142.83;57.50;;;;;;;-0.29;100.00;101149.91;5013363;28;20710;-76
2023/01/22 02:42:49;;;;;;;146.13;55.80;;;;;;;-0.26;100.00;101154.28;5023390;28;20278;-74
2023/01/22 02:45:15;;;;;;;154.47;59.70;;;;;;;-0.32;100.00;101155.72;5022709;28;20266;-75
2023/01/22 02:47:40;;;;;;;148.10;60.60;;;;;;;-0.31;100.00;101154.06;5030082;28;20269;-75
2023/01/22 02:50:06;;;;;;;146.63;59.60;;;;;;;-0.32;100.00;101154.88;5013163;28;20741;-74
2023/01/22 02:52:32;;;;;;;152.20;59.70;;;;;;;-0.33;100.00;101153.97;5025258;28;20686;-75
2023/01/22 02:54:57;;;;;;;147.83;58.00;;;;;;;-0.29;100.00;101159.22;5017231;28;20195;-75
2023/01/22 02:57:22;;;;;;;154.77;57.70;;;;;;;-0.29;100.00;101157.53;5019170;28;20187;-75
2023/01/22 02:59:48;;;;;;;133.60;52.60;;;;;;;-0.27;100.00;101157.63;5013313;28;20183;-75
2023/01/22 03:02:13;;;;;;;124.13;51.20;;;;;;;-0.23;100.00;101160.38;5022281;28;20644;-74
2023/01/22 03:04:38;;;;;;;125.33;50.47;;;;;;;-0.19;100.00;101162.28;5027146;28;20174;-74
2023/01/22 03:07:03;;;;;;;129.17;51.00;;;;;;;-0.16;100.00;101159.00;5018373;28;20216;-75
2023/01/22 03:09:29;;;;;;;121.43;50.27;;;;;;;-0.12;100.00;101162.56;5033692;28;20194;-75
2023/01/22 03:11:54;;;;;;;123.40;49.47;;;;;;;-0.11;100.00;101159.22;5027805;28;20219;-74
2023/01/22 03:22:34;;;;;;;129.80;51.50;;;;;;;0.05;100.00;101140.50;5023179;28;20629;-73
2023/01/22 03:25:00;;;;;;;122.43;50.43;;;;;;;0.08;100.00;101143.16;5024125;28;20207;-74
2023/01/22 03:27:26;;;;;;;119.23;47.97;;;;;;;0.10;100.00;101147.56;5021204;28;20188;-75
2023/01/22 03:29:52;;;;;;;117.87;48.07;;;;;;;0.13;100.00;101147.72;5019538;28;20205;-74
2023/01/22 03:32:17;;;;;;;125.40;49.43;;;;;;;0.15;100.00;101140.13;5025266;28;20700;-74
2023/01/22 03:34:43;;;;;;;113.87;48.73;;;;;;;0.17;100.00;101140.19;5031548;28;21775;-74
2023/01/22 03:37:11;;;;;;;124.23;49.93;;;;;;;0.19;100.00;101138.59;5040471;28;20657;-75
2023/01/22 03:39:37;;;;;;;121.23;49.93;;;;;;;0.21;100.00;101142.97;5017610;28;20194;-75
2023/01/22 03:42:03;;;;;;;125.17;51.50;;;;;;;0.24;100.00;101137.16;5025128;28;20230;-75
2023/01/22 03:44:28;;;;;;;125.90;52.03;;;;;;;0.24;100.00;101142.25;5021045;28;20184;-75
2023/01/22 03:46:54;;;;;;;117.13;50.83;;;;;;;0.24;100.00;101142.25;5031731;28;20229;-74
2023/01/22 03:49:19;;;;;;;119.77;50.97;;;;;;;0.25;100.00;101144.84;5026716;28;20274;-74
2023/01/22 03:51:44;;;;;;;130.83;52.63;;;;;;;0.26;100.00;101151.69;5018187;28;21151;-74
2023/01/22 03:54:11;;;;;;;123.83;52.37;;;;;;;0.26;100.00;101141.50;5027938;28;20253;-74
2023/01/22 03:56:37;;;;;;;123.50;51.43;;;;;;;0.27;100.00;101143.25;5018870;28;20302;-75
2023/01/22 03:59:02;;;;;;;127.13;53.67;;;;;;;0.27;100.00;101137.31;5026226;28;20662;-75
2023/01/22 04:01:28;;;;;;;119.10;50.90;;;;;;;0.29;100.00;101149.28;5021377;28;20204;-74
2023/01/22 04:03:54;;;;;;;120.07;52.00;;;;;;;0.33;100.00;101142.66;5024446;28;20746;-75
2023/01/22 04:06:21;;;;;;;135.77;57.07;;;;;;;0.35;100.00;101141.06;5020490;28;20666;-74
2023/01/22 04:08:49;;;;;;;137.17;54.57;;;;;;;0.35;100.00;101143.59;5019112;28;20634;-74
2023/01/22 04:11:14;;;;;;;124.60;53.87;;;;;;;0.37;100.00;101146.25;5025417;28;20240;-75
2023/01/22 04:13:42;;;;;;;126.47;54.33;;;;;;;0.39;100.00;101147.16;5028076;28;20224;-75
2023/01/22 04:16:08;;;;;;;132.77;54.57;;;;;;;0.41;100.00;101140.47;5027846;28;20218;-74
2023/01/22 04:18:34;;;;;;;124.43;55.03;;;;;;;0.43;100.00;101144.84;5024701;28;20183;-75
2023/01/22 04:20:59;;;;;;;124.70;52.87;;;;;;;0.45;100.00;101144.91;5028800;28;21010;-76
2023/01/22 04:23:25;;;;;;;130.80;56.80;;;;;;;0.45;100.00;101143.22;5025181;28;20226;-75
2023/01/22 04:25:51;;;;;;;126.57;54.57;;;;;;;0.46;100.00;101149.19;5033007;28;20245;-75
2023/01/22 04:28:17;;;;;;;123.17;55.30;;;;;;;0.47;100.00;101143.31;5030883;28;20195;-74
2023/01/22 04:30:44;;;;;;;117.27;53.67;;;;;;;0.48;100.00;101152.69;5019244;28;20204;-74
2023/01/22 04:33:10;;;;;;;129.20;53.50;;;;;;;0.50;100.00;101147.66;5025479;28;20226;-75
2023/01/22 04:35:36;;;;;;;123.80;54.10;;;;;;;0.49;100.00;101149.34;5021035;28;20322;-75
2023/01/22 04:38:02;;;;;;;117.00;53.23;;;;;;;0.49;100.00;101151.91;5035615;28;20196;-75
2023/01/22 04:40:27;;;;;;;123.53;53.20;;;;;;;0.49;100.00;101154.44;5023943;28;20275;-75
2023/01/22 04:42:53;;;;;;;123.17;53.97;;;;;;;0.50;100.00;101155.31;5029387;28;20189;-74
2023/01/22 04:45:19;;;;;;;123.60;52.60;;;;;;;0.52;100.00;101151.16;5027580;28;20210;-75
2023/01/22 04:47:46;;;;;;;120.23;53.33;;;;;;;0.52;100.00;101159.69;5026883;28;20175;-75
2023/01/22 04:50:19;;;;;;;124.23;55.77;;;;;;;0.53;100.00;101147.81;5028235;28;20250;-74
2023/01/22 04:52:45;;;;;;;119.90;53.37;;;;;;;0.53;100.00;101158.84;5026700;28;20211;-75
2023/01/22 04:55:11;;;;;;;118.60;51.23;;;;;;;0.52;100.00;101152.03;5027153;28;20194;-74
2023/01/22 04:57:36;;;;;;;122.23;52.20;;;;;;;0.54;100.00;101154.66;5030037;28;20283;-75
2023/01/22 05:00:04;;;;;;;121.33;53.10;;;;;;;0.55;100.00;101154.72;5012094;28;20191;-74
2023/01/22 05:02:29;;;;;;;122.97;52.10;;;;;;;0.54;100.00;101147.88;5018174;28;20223;-74
2023/01/22 05:04:54;;;;;;;114.67;53.53;;;;;;;0.55;100.00;101151.31;5020552;28;20716;-75
2023/01/22 05:07:20;;;;;;;110.50;51.43;;;;;;;0.55;100.00;101158.94;5019344;28;20444;-74
2023/01/22 05:09:45;;;;;;;111.20;51.03;;;;;;;0.54;100.00;101158.06;5020930;28;20193;-75
2023/01/22 05:12:10;;;;;;;116.27;53.67;;;;;;;0.54;100.00;101154.66;5035264;28;20242;-75
2023/01/22 05:14:36;;;;;;;118.53;52.53;;;;;;;0.54;100.00;101155.50;5018084;28;20572;-74
2023/01/22 05:17:01;;;;;;;120.37;54.40;;;;;;;0.56;100.00;101158.13;5013778;28;20203;-74
2023/01/22 05:19:26;;;;;;;125.93;54.53;;;;;;;0.55;100.00;101156.41;5017230;28;20188;-75
2023/01/22 05:21:52;;;;;;;121.63;54.40;;;;;;;0.55;100.00;101154.72;5014547;28;20212;-74
2023/01/22 05:24:17;;;;;;;113.13;52.07;;;;;;;0.57;100.00;101159.88;5022188;28;20203;-74
2023/01/22 05:26:43;;;;;;;116.50;52.23;;;;;;;0.58;100.00;101162.50;5025174;28;20190;-74
2023/01/22 05:29:09;;;;;;;117.40;52.57;;;;;;;0.59;100.00;101163.38;5044937;28;20183;-75
2023/01/22 05:31:34;;;;;;;113.10;54.40;;;;;;;0.60;100.00;101155.81;5039231;28;20227;-74
2023/01/22 05:34:00;;;;;;;116.27;51.23;;;;;;;0.60;100.00;101163.44;5017430;28;20941;-75
2023/01/22 05:36:25;;;;;;;114.03;53.73;;;;;;;0.63;100.00;101159.28;5017571;28;20235;-74
2023/01/22 05:38:50;;;;;;;114.43;52.43;;;;;;;0.63;100.00;101164.38;5015174;28;20191;-75
2023/01/22 05:41:15;;;;;;;115.23;55.40;;;;;;;0.62;100.00;101160.09;5024786;28;20586;-75
2023/01/22 05:43:41;;;;;;;117.57;51.97;;;;;;;0.63;100.00;101166.94;5034077;28;20188;-75
2023/01/22 05:46:06;;;;;;;113.70;52.90;;;;;;;0.65;100.00;101172.97;5014854;28;20184;-74
2023/01/22 05:48:32;;;;;;;117.97;56.43;;;;;;;0.65;100.00;101168.75;5012438;28;20574;-75
2023/01/22 05:51:05;;;;;;;120.93;53.53;;;;;;;0.65;100.00;101180.63;5011406;28;20242;-74
2023/01/22 05:53:31;;;;;;;108.83;52.33;;;;;;;0.64;100.00;101177.19;5016849;28;20199;-76
2023/01/22 05:56:03;;;;;;;108.83;51.80;;;;;;;0.67;100.00;101181.56;5021162;28;20250;-74
2023/01/22 05:58:30;;;;;;;114.17;51.63;;;;;;;0.66;100.00;101178.13;5024813;28;20195;-74
2023/01/22 06:00:57;;;;;;;114.40;52.77;;;;;;;0.66;100.00;101180.69;5014502;28;20212;-76
2023/01/22 06:03:22;;;;;;;112.13;51.23;;;;;;;0.66;100.00;101180.69;5023290;28;20184;-76
2023/01/22 06:05:59;;;;;;;115.40;51.83;;;;;;;0.69;100.00;101192.69;5014150;28;20179;-76
2023/01/22 06:08:25;;;;;;;109.10;52.13;;;;;;;0.69;100.00;101185.03;5016432;28;20184;-76
2023/01/22 06:10:58;;;;;;;108.43;54.23;;;;;;;0.72;100.00;101185.19;5009025;28;20263;-76
2023/01/22 06:13:23;;;;;;;109.23;51.70;;;;;;;0.70;100.00;101187.66;5014705;28;20190;-76
2023/01/22 06:15:48;;;;;;;108.10;52.40;;;;;;;0.70;100.00;101182.56;5020207;28;20234;-75
2023/01/22 06:18:13;;;;;;;100.20;50.90;;;;;;;0.71;100.00;101186.88;5021824;28;20933;-76
2023/01/22 06:20:39;;;;;;;101.87;49.90;;;;;;;0.70;100.00;101190.22;5023008;28;20446;-76
2023/01/22 06:23:04;;;;;;;103.47;51.03;;;;;;;0.71;100.00;101189.41;5019464;28;20199;-76
2023/01/22 06:25:29;;;;;;;108.00;51.77;;;;;;;0.72;100.00;101193.72;5026164;28;20186;-75
2023/01/22 06:27:55;;;;;;;112.83;54.43;;;;;;;0.73;100.00;101197.13;5018849;28;20636;-75
2023/01/22 06:30:20;;;;;;;103.17;51.53;;;;;;;0.73;100.00;101199.66;5015331;28;20183;-76
2023/01/22 06:32:45;;;;;;;104.83;53.23;;;;;;;0.73;100.00;101199.66;5017110;28;20216;-76
2023/01/22 06:35:11;;;;;;;97.07;49.83;;;;;;;0.73;100.00;101205.66;5016587;28;20186;-76
2023/01/22 06:37:36;;;;;;;100.70;50.90;;;;;;;0.72;100.00;101201.34;5017218;28;20193;-76
2023/01/22 06:40:01;;;;;;;100.73;46.93;;;;;;;0.70;100.00;101200.41;5011050;28;20199;-75
2023/01/22 06:42:26;;;;;;;91.03;47.17;;;;;;;0.69;100.00;101203.75;5023511;28;20703;-75
2023/01/22 06:44:52;;;;;;;85.83;44.37;;;;;;;0.69;100.00;101203.75;5024833;28;20270;-76
2023/01/22 06:47:17;;;;;;;87.97;45.63;;;;;;;0.66;100.00;101206.16;5010633;28;20267;-76
2023/01/22 06:49:43;;;;;;;93.20;45.77;;;;;;;0.67;100.00;101204.50;5014135;28;20199;-75
2023/01/22 06:52:08;;;;;;;80.20;44.77;;;;;;;0.67;100.00;101212.13;5015635;28;20859;-76
2023/01/22 06:54:33;;;;;;;80.17;42.93;;;;;;;0.65;100.00;101211.19;5029871;28;20195;-76
2023/01/22 06:56:59;;;;;;;86.87;46.07;;;;;;;0.65;100.00;101203.56;5038324;28;20238;-75
2023/01/22 06:59:24;;;;;;;86.47;46.40;;;;;;;0.61;100.00;101207.59;5026845;28;20183;-75
2023/01/22 07:01:49;;;;;;;82.67;45.47;;;;;;;0.58;100.00;101202.41;5016273;28;20208;-76
2023/01/22 07:04:15;;;;;;;85.67;45.60;;;;;;;0.63;100.00;101207.69;5012994;28;20199;-75
2023/01/22 07:06:40;;;;;;;90.17;47.17;;;;;;;0.68;100.00;101216.44;5021381;28;20214;-76
2023/01/22 07:09:05;;;;;;;85.70;44.03;;;;;;;0.70;100.00;101218.25;5018871;28;20228;-76
2023/01/22 07:11:31;;;;;;;92.63;46.93;;;;;;;0.71;100.00;101217.44;5015701;28;20200;-75
2023/01/22 07:13:56;;;;;;;86.23;44.60;;;;;;;0.71;100.00;101214.00;5014882;28;20245;-75
2023/01/22 07:16:21;;;;;;;90.20;46.67;;;;;;;0.72;100.00;101223.41;5031691;28;20533;-76
2023/01/22 07:18:46;;;;;;;84.30;44.90;;;;;;;0.72;100.00;101224.28;5015261;28;20718;-76
2023/01/22 07:21:12;;;;;;;88.63;45.53;;;;;;;0.72;100.00;101216.66;5017611;28;20752;-76
2023/01/22 07:23:37;;;;;;;81.23;44.97;;;;;;;0.70;100.00;101218.25;5011116;28;20199;-76
2023/01/22 07:26:03;;;;;;;77.67;43.70;;;;;;;0.67;100.00;101233.38;5029916;28;20183;-75
2023/01/22 07:28:28;;;;;;;78.43;42.27;;;;;;;0.67;100.00;101230.84;5019315;28;20266;-75
2023/01/22 07:30:55;;;;;;;75.77;42.30;;;;;;;0.71;100.00;101236.94;5019269;28;20319;-75
2023/01/22 07:33:20;;;;;;;72.40;41.33;;;;;;;0.71;100.00;101242.91;5015708;28;20749;-75
2023/01/22 07:35:53;;;;;;;69.70;40.63;;;;;;;0.72;100.00;101243.78;5022652;28;20208;-75
2023/01/22 07:38:18;;;;;;;72.67;38.93;;;;;;;0.73;100.00;101242.97;5016845;28;20186;-75
2023/01/22 07:40:43;;;;;;;82.37;42.27;;;;;;;0.72;100.00;101242.13;5040592;28;20242;-76
2023/01/22 07:43:09;;;;;;;76.00;43.03;;;;;;;0.70;100.00;101248.81;5058649;28;20198;-75
2023/01/22 07:45:35;;;;;;;77.10;43.23;;;;;;;0.69;100.00;101253.81;5035463;28;20184;-74
2023/01/22 07:48:01;;;;;;;77.07;42.27;;;;;;;0.68;100.00;101257.19;5042955;28;20214;-75
2023/01/22 07:50:29;;;;;;;75.20;42.90;;;;;;;0.68;100.00;101247.88;5028233;28;20786;-76
2023/01/22 07:52:55;;;;;;;74.77;44.43;;;;;;;0.69;100.00;101257.25;5027169;28;20190;-75
2023/01/22 07:55:21;;;;;;;71.43;40.50;;;;;;;0.74;100.00;101257.47;5024406;28;20586;-75
2023/01/22 07:57:46;;;;;;;71.07;41.80;;;;;;;0.81;100.00;101259.53;5041883;28;20237;-76
2023/01/22 08:00:14;;;;;;;71.47;42.67;;;;;;;0.89;100.00;101260.72;5037489;28;20715;-75
2023/01/22 08:02:41;;;;;;;71.73;40.23;;;;;;;0.96;100.00;101261.88;5025755;28;20376;-75
2023/01/22 08:05:07;;;;;;;68.53;40.23;;;;;;;1.04;100.00;101268.22;5022051;28;20198;-75
2023/01/22 08:07:32;;;;;;;73.27;39.40;;;;;;;1.14;100.00;101258.44;5026146;28;20262;-75
2023/01/22 08:09:58;;;;;;;68.17;39.73;;;;;;;1.29;100.00;101265.88;5027535;28;20912;-76
2023/01/22 08:12:23;;;;;;;72.47;42.60;;;;;;;1.47;100.00;101264.16;5015382;28;20210;-76
2023/01/22 08:14:49;;;;;;;74.00;41.47;;;;;;;1.60;100.00;101260.47;5023754;28;20196;-76
2023/01/22 08:17:14;;;;;;;67.83;38.73;;;;;;;1.70;100.00;101266.84;5018659;28;20199;-75
2023/01/22 08:19:39;;;;;;;63.37;38.00;;;;;;;1.79;100.00;101268.94;5023124;28;20187;-75
2023/01/22 08:22:05;;;;;;;63.53;39.70;;;;;;;1.83;100.00;101270.78;5038978;28;20199;-75
2023/01/22 08:24:31;;;;;;;63.10;38.93;;;;;;;1.86;100.00;101270.91;5018399;28;20189;-76
2023/01/22 08:26:57;;;;;;;62.23;40.00;;;;;;;1.86;100.00;101276.03;5036734;28;20208;-76
2023/01/22 08:29:22;;;;;;;60.57;37.17;;;;;;;1.82;100.00;101280.13;5015837;28;20226;-76
2023/01/22 08:31:49;;;;;;;60.03;37.77;;;;;;;1.79;100.00;101277.44;5019349;28;20222;-75
2023/01/22 08:34:14;;;;;;;58.93;37.50;;;;;;;1.76;100.00;101287.50;5011309;28;20184;-75
2023/01/22 08:36:39;;;;;;;57.90;38.90;;;;;;;1.73;100.00;101291.63;5019190;28;20218;-75
2023/01/22 08:39:05;;;;;;;52.53;36.03;;;;;;;1.68;100.00;101289.72;5024077;28;20191;-75
2023/01/22 08:41:30;;;;;;;49.73;36.13;;;;;;;1.60;100.00;101298.75;5016342;28;20227;-76
2023/01/22 08:43:55;;;;;;;54.77;35.63;;;;;;;1.60;100.00;101298.75;5014637;28;20591;-75
2023/01/22 08:46:21;;;;;;;49.63;33.47;;;;;;;1.62;100.00;101294.59;5021127;28;20180;-75
2023/01/22 08:48:47;;;;;;;51.13;33.07;;;;;;;1.65;100.00;101299.81;5015297;28;20219;-76
2023/01/22 08:51:13;;;;;;;46.73;33.83;;;;;;;1.60;100.00;101300.41;5021681;28;20691;-75
2023/01/22 08:53:39;;;;;;;47.97;33.63;;;;;;;1.62;100.00;101301.34;5021393;28;20182;-76
2023/01/22 08:56:04;;;;;;;49.23;33.30;;;;;;;1.61;100.00;101297.94;5017194;28;20203;-75
2023/01/22 08:58:30;;;;;;;45.80;32.90;;;;;;;1.47;100.00;101296.47;5018178;28;20188;-75
2023/01/22 09:00:55;;;;;;;45.43;33.37;;;;;;;1.52;100.00;101295.84;5026077;28;20215;-75
2023/01/22 09:03:21;;;;;;;44.33;33.80;;;;;;;1.52;100.00;101298.41;5024663;28;20267;-75
2023/01/22 09:05:47;;;;;;;49.17;33.43;;;;;;;1.52;100.00;101308.59;5019723;28;20171;-76
2023/01/22 09:08:12;;;;;;;43.63;32.33;;;;;;;1.41;100.00;101302.16;5020026;28;20192;-76
2023/01/22 09:10:38;;;;;;;44.47;32.80;;;;;;;1.38;100.00;101302.03;5018636;28;20176;-76
2023/01/22 09:13:03;;;;;;;43.47;32.63;;;;;;;1.40;100.00;101305.53;5022294;28;20187;-75
2023/01/22 09:15:29;;;;;;;41.40;31.93;;;;;;;1.38;100.00;101304.56;5036149;28;20213;-75
2023/01/22 09:17:54;;;;;;;41.07;29.97;;;;;;;1.17;100.00;101318.09;5026060;28;20915;-75
2023/01/22 09:20:20;;;;;;;37.10;29.10;;;;;;;1.15;100.00;101319.69;5017227;28;20756;-76
2023/01/22 09:22:46;;;;;;;35.67;27.23;;;;;;;1.11;100.00;101315.25;5021233;28;20206;-75
2023/01/22 09:25:12;;;;;;;40.57;30.77;;;;;;;1.11;100.00;101319.47;5026289;28;20667;-75
2023/01/22 09:27:38;;;;;;;44.00;30.97;;;;;;;1.25;100.00;101332.88;5016383;28;20179;-75
2023/01/22 09:30:04;;;;;;;39.30;29.17;;;;;;;1.26;100.00;101321.88;5017611;28;20650;-76
2023/01/22 09:32:29;;;;;;;38.20;29.50;;;;;;;1.36;100.00;101327.44;5015066;28;20239;-75
2023/01/22 09:34:55;;;;;;;41.43;32.03;;;;;;;1.33;100.00;101324.78;5015423;28;20216;-74
2023/01/22 09:37:20;;;;;;;36.67;29.63;;;;;;;1.39;100.00;101326.72;5016890;28;20257;-75
2023/01/22 09:39:49;;;;;;;34.13;27.67;;;;;;;1.35;100.00;101327.38;5010730;28;20264;-75
2023/01/22 09:42:29;;;;;;;38.53;29.17;;;;;;;1.45;100.00;101337.19;5013119;28;20773;-75
2023/01/22 09:45:03;;;;;;;35.93;28.70;;;;;;;1.49;100.00;101326.31;5024589;28;20254;-76
2023/01/22 09:47:37;;;;;;;39.00;28.90;;;;;;;1.49;100.00;101335.66;5023277;28;20184;-75
2023/01/22 09:50:06;;;;;;;35.93;27.90;;;;;;;1.70;100.00;101334.84;5022698;28;20175;-75
2023/01/22 09:52:36;;;;;;;34.73;27.40;;;;;;;1.74;100.00;101329.09;5029802;28;20207;-74
2023/01/22 09:55:04;;;;;;;35.03;28.83;;;;;;;1.56;100.00;101341.91;5053084;28;20199;-75
2023/01/22 09:57:30;;;;;;;34.23;27.17;;;;;;;1.74;100.00;101347.81;5044150;28;20215;-75
2023/01/22 09:59:55;;;;;;;29.43;25.23;;;;;;;1.62;100.00;101340.50;5021116;28;20184;-75
2023/01/22 10:02:30;;;;;;;33.03;26.93;;;;;;;1.77;100.00;101345.41;5023828;28;20680;-75
2023/01/22 10:05:00;;;;;;;29.40;25.77;;;;;;;1.61;100.00;101341.31;5014645;28;20310;-75
2023/01/22 10:07:33;;;;;;;31.67;27.23;;;;;;;1.78;100.00;101344.59;5017101;28;20229;-76
2023/01/22 10:10:11;;;;;;;26.83;23.90;;;;;;;1.71;100.00;101345.16;5013275;28;20838;-75
2023/01/22 10:12:36;;;;;;;29.20;25.90;;;;;;;1.69;100.00;101346.75;5009883;28;20210;-75
2023/01/22 10:15:01;;;;;;;29.43;26.07;;;;;;;1.54;100.00;101352.03;5019125;28;20232;-75
2023/01/22 10:17:32;;;;;;;26.67;23.77;;;;;;;1.61;100.00;101343.88;5018660;28;20218;-75
2023/01/22 10:20:02;;;;;;;25.77;22.97;;;;;;;1.64;100.00;101346.56;5015660;28;20219;-75
2023/01/22 10:22:27;;;;;;;26.70;23.83;;;;;;;1.62;100.00;101348.16;5021321;28;20210;-75
2023/01/22 10:24:53;;;;;;;27.23;24.37;;;;;;;1.72;100.00;101349.47;5015186;28;20195;-75
2023/01/22 10:27:22;;;;;;;25.23;22.67;;;;;;;1.66;100.00;101341.50;5018284;28;20204;-75
2023/01/22 10:30:23;;;;;;;24.10;21.50;;;;;;;1.61;100.00;101346.41;5016214;28;20253;-75
2023/01/22 10:33:02;;;;;;;25.77;23.00;;;;;;;1.60;100.00;101339.56;5012611;28;20208;-75
2023/01/22 10:35:30;;;;;;;26.20;22.40;;;;;;;1.62;100.00;101337.97;5025840;28;20184;-75
2023/01/22 10:37:57;;;;;;;24.23;21.63;;;;;;;1.64;100.00;101346.56;5018535;28;20192;-76
2023/01/22 10:40:42;;;;;;;25.53;22.83;;;;;;;1.63;100.00;101343.94;5018410;28;20181;-75
2023/01/22 10:43:11;;;;;;;23.87;21.37;;;;;;;1.71;100.00;101336.59;5018782;28;20186;-75
2023/01/22 10:45:38;;;;;;;24.87;22.17;;;;;;;1.75;100.00;101341.91;5017107;28;20192;-75
2023/01/22 10:48:11;;;;;;;24.13;21.57;;;;;;;1.74;100.00;101337.59;5020555;28;20729;-75
2023/01/22 10:50:36;;;;;;;23.97;21.37;;;;;;;1.81;100.00;101343.88;5018507;28;20201;-75
2023/01/22 10:53:03;;;;;;;22.70;20.27;;;;;;;1.86;100.00;101341.53;5024672;28;20592;-75
2023/01/22 10:55:31;;;;;;;23.03;20.60;;;;;;;1.64;100.00;101344.00;5019009;28;20214;-75
2023/01/22 10:58:04;;;;;;;22.70;20.40;;;;;;;1.65;100.00;101342.31;5015505;28;20194;-75
2023/01/22 11:00:37;;;;;;;21.10;18.90;;;;;;;1.77;100.00;101337.75;5016697;28;20191;-75
2023/01/22 11:03:41;;;;;;;21.37;19.10;;;;;;;1.86;100.00;101344.94;5013827;28;20192;-74
2023/01/22 11:06:31;;;;;;;22.67;20.07;;;;;;;2.04;100.00;101341.44;4965383;28;20190;-75
2023/01/22 11:09:04;;;;;;;21.77;19.60;;;;;;;2.07;100.00;101337.34;4962325;28;20191;-75